Time;durP1;ratioP1;P1;durP2;ratioP2;P2;SDS_P1;SDS_P2;PMS_P1;PMS_P2;Temp;Humidity;BMP_temperature;BMP_pressure;BME280_temperature;BME280_humidity;BME280_pressure;Samples;Min_cycle;Max_cycle;Signal;HPM_P1;HPM_P2
2022/09/16 00:01:59;;;;;;;7.10;3.15;;;;;;;;;;5034152;28;20046;-86
2022/09/16 00:04:26;;;;;;;7.38;3.05;;;;;;;;;;5033126;28;20049;-87
2022/09/16 00:06:53;;;;;;;8.15;3.55;;;;;;;;;;5033856;28;20064;-87
2022/09/16 00:09:22;;;;;;;4.07;3.53;;;;;;;;;;5033186;28;20383;-87
2022/09/16 00:11:49;;;;;;;7.50;3.42;;;;;;;;;;5033010;28;20075;-87
2022/09/16 00:14:17;;;;;;;6.13;3.30;;;;;;;;;;5033957;28;20060;-86
2022/09/16 00:16:44;;;;;;;8.38;3.70;;;;;;;;;;5033086;28;20056;-87
2022/09/16 00:19:12;;;;;;;4.78;3.45;;;;;;;;;;5032900;28;20049;-87
2022/09/16 00:21:39;;;;;;;7.32;3.30;;;;;;;;;;5032761;28;20049;-87
2022/09/16 00:24:06;;;;;;;7.15;3.20;;;;;;;;;;5032710;28;20053;-87
2022/09/16 00:26:33;;;;;;;6.93;3.50;;;;;;;;;;5033070;28;20049;-87
2022/09/16 00:29:00;;;;;;;3.92;3.05;;;;;;;;;;5033762;28;20060;-87
2022/09/16 00:31:30;;;;;;;7.93;3.75;;;;;;;;;;5033966;28;20148;-87
2022/09/16 00:33:57;;;;;;;8.55;4.05;;;;;;;;;;5032751;28;20555;-88
2022/09/16 00:36:24;;;;;;;8.77;4.35;;;;;;;;;;5033864;28;20049;-88
2022/09/16 00:38:53;;;;;;;7.80;4.40;;;;;;;;;;5032715;28;20049;-87
2022/09/16 00:41:22;;;;;;;9.40;4.07;;;;;;;;;;5034003;28;20181;-87
2022/09/16 00:43:53;;;;;;;6.38;4.32;;;;;;;;;;5033861;28;20052;-87
2022/09/16 00:46:29;;;;;;;4.90;3.90;;;;;;;;;;5033645;28;20063;-88
2022/09/16 00:48:57;;;;;;;6.18;4.10;;;;;;;;;;5033621;28;20072;-87
2022/09/16 00:51:27;;;;;;;6.00;4.00;;;;;;;;;;5032559;28;20085;-89
2022/09/16 00:53:58;;;;;;;4.25;3.80;;;;;;;;;;5032435;28;20054;-87
2022/09/16 00:56:27;;;;;;;5.60;3.92;;;;;;;;;;5033682;28;20050;-86
2022/09/16 00:59:20;;;;;;;5.30;3.92;;;;;;;;;;5033665;28;20416;-87
2022/09/16 01:01:48;;;;;;;4.38;3.67;;;;;;;;;;5024600;28;20107;-87
2022/09/16 01:04:21;;;;;;;5.35;3.80;;;;;;;;;;5033468;28;20057;-90
2022/09/16 01:06:48;;;;;;;6.15;4.05;;;;;;;;;;5031337;28;20073;-88
2022/09/16 01:09:16;;;;;;;7.13;4.25;;;;;;;;;;5032178;28;20045;-88
2022/09/16 01:11:43;;;;;;;7.65;4.10;;;;;;;;;;5032094;28;20045;-87
2022/09/16 01:17:35;;;;;;;5.35;4.30;;;;;;;;;;5033377;28;20053;-87
2022/09/16 01:20:22;;;;;;;5.60;4.30;;;;;;;;;;4990547;28;20054;-88
2022/09/16 01:22:52;;;;;;;7.68;4.60;;;;;;;;;;4975772;28;20046;-89
2022/09/16 01:25:34;;;;;;;7.60;4.60;;;;;;;;;;5010468;28;20045;-86
2022/09/16 01:28:20;;;;;;;7.18;4.60;;;;;;;;;;5031921;28;20053;-87
2022/09/16 01:30:52;;;;;;;8.13;5.18;;;;;;;;;;5032021;28;20053;-88
2022/09/16 01:33:55;;;;;;;12.23;4.68;;;;;;;;;;5032110;28;20053;-86
2022/09/16 01:36:25;;;;;;;5.90;4.55;;;;;;;;;;4976939;28;20574;-87
2022/09/16 01:38:52;;;;;;;8.65;4.00;;;;;;;;;;5029629;28;20513;-87
2022/09/16 01:41:19;;;;;;;5.43;4.20;;;;;;;;;;5035809;28;20490;-87
2022/09/16 01:43:53;;;;;;;6.28;3.95;;;;;;;;;;5035837;28;20060;-86
2022/09/16 01:46:20;;;;;;;4.40;4.00;;;;;;;;;;5035752;28;20060;-84
2022/09/16 01:48:57;;;;;;;5.63;3.80;;;;;;;;;;5035473;28;20197;-88
2022/09/16 01:51:31;;;;;;;7.45;3.92;;;;;;;;;;5036775;28;20052;-88
2022/09/16 01:54:02;;;;;;;6.70;4.38;;;;;;;;;;5035668;28;20042;-87
2022/09/16 01:56:56;;;;;;;5.22;4.43;;;;;;;;;;5035556;28;20053;-87
2022/09/16 01:59:31;;;;;;;6.22;3.65;;;;;;;;;;5012872;28;20054;-87
2022/09/16 02:02:21;;;;;;;6.38;3.60;;;;;;;;;;5036303;28;20054;-87
2022/09/16 02:04:56;;;;;;;5.45;4.15;;;;;;;;;;5027859;28;20551;-86
2022/09/16 02:07:25;;;;;;;7.60;4.20;;;;;;;;;;5036449;28;20057;-87
2022/09/16 02:09:56;;;;;;;3.88;3.58;;;;;;;;;;5035069;28;20049;-87
2022/09/16 02:12:27;;;;;;;8.38;4.25;;;;;;;;;;5036312;28;20045;-86
2022/09/16 02:14:56;;;;;;;4.93;4.43;;;;;;;;;;5035329;28;20045;-87
2022/09/16 02:17:26;;;;;;;8.13;4.68;;;;;;;;;;5035252;28;20049;-88
2022/09/16 02:20:00;;;;;;;6.32;4.03;;;;;;;;;;5035000;28;20053;-87
2022/09/16 02:22:27;;;;;;;;;;;;;;;;;;5035346;28;20049;-86
2022/09/16 02:24:54;;;;;;;7.95;4.38;;;;;;;;;;5035805;28;20001;-86
2022/09/16 02:27:22;;;;;;;6.30;3.90;;;;;;;;;;5035897;28;20053;-87
2022/09/16 02:29:55;;;;;;;7.43;3.90;;;;;;;;;;5034884;28;20045;-87
2022/09/16 02:32:23;;;;;;;7.70;4.30;;;;;;;;;;5034875;28;20049;-87
2022/09/16 02:34:53;;;;;;;7.88;4.55;;;;;;;;;;5034726;28;20055;-87
2022/09/16 02:37:27;;;;;;;6.00;3.83;;;;;;;;;;5034633;28;20611;-88
2022/09/16 02:39:55;;;;;;;;;;;;;;;;;;5036134;28;20057;-87
2022/09/16 02:42:22;;;;;;;6.10;3.90;;;;;;;;;;5035888;28;20281;-88
2022/09/16 02:44:50;;;;;;;8.82;4.93;;;;;;;;;;5035372;28;20517;-87
2022/09/16 02:47:20;;;;;;;7.18;5.05;;;;;;;;;;5033428;28;20056;-87
2022/09/16 02:49:55;;;;;;;11.15;5.15;;;;;;;;;;5034223;28;20045;-88
2022/09/16 02:52:36;;;;;;;6.80;5.15;;;;;;;;;;5035466;28;20061;-87
2022/09/16 02:55:22;;;;;;;5.65;5.18;;;;;;;;;;5034649;28;20049;-87
2022/09/16 02:57:49;;;;;;;6.32;4.90;;;;;;;;;;5034165;28;20045;-86
2022/09/16 03:00:17;;;;;;;7.88;5.28;;;;;;;;;;5034221;28;20057;-87
2022/09/16 03:02:44;;;;;;;12.65;4.90;;;;;;;;;;5034252;28;20049;-87
2022/09/16 03:05:12;;;;;;;5.38;4.90;;;;;;;;;;5034609;28;20054;-86
2022/09/16 03:07:40;;;;;;;6.45;4.60;;;;;;;;;;5034289;28;20064;-87
2022/09/16 03:10:13;;;;;;;9.77;4.90;;;;;;;;;;5035183;28;20049;-86
2022/09/16 03:12:40;;;;;;;;;;;;;;;;;;5035562;28;20528;-87
2022/09/16 03:15:11;;;;;;;5.57;4.43;;;;;;;;;;5034053;28;19921;-88
2022/09/16 03:17:38;;;;;;;8.23;4.63;;;;;;;;;;5034388;28;20045;-88
2022/09/16 03:20:11;;;;;;;6.38;4.63;;;;;;;;;;5035136;28;20060;-88
2022/09/16 03:22:57;;;;;;;5.13;4.60;;;;;;;;;;5034082;28;20072;-87
2022/09/16 03:25:27;;;;;;;9.27;4.38;;;;;;;;;;5034677;28;20049;-87
2022/09/16 03:28:00;;;;;;;6.88;4.03;;;;;;;;;;5034739;28;20046;-87
2022/09/16 03:30:29;;;;;;;6.97;4.30;;;;;;;;;;5035141;28;20085;-88
2022/09/16 03:32:59;;;;;;;5.75;4.32;;;;;;;;;;5033813;28;20053;-89
2022/09/16 03:35:32;;;;;;;7.40;4.55;;;;;;;;;;5033785;28;20132;-87
2022/09/16 03:38:00;;;;;;;8.93;4.68;;;;;;;;;;5033676;28;20045;-88
2022/09/16 03:40:28;;;;;;;8.07;5.30;;;;;;;;;;5033728;28;20045;-86
2022/09/16 03:42:57;;;;;;;5.43;4.78;;;;;;;;;;5033595;28;20099;-87
2022/09/16 03:45:24;;;;;;;5.32;4.38;;;;;;;;;;5034345;28;20067;-87
2022/09/16 03:47:52;;;;;;;5.57;4.75;;;;;;;;;;5034096;28;20061;-86
2022/09/16 03:50:20;;;;;;;8.95;4.55;;;;;;;;;;5034538;28;20053;-87
2022/09/16 03:52:47;;;;;;;9.85;4.50;;;;;;;;;;5034212;28;20056;-89
2022/09/16 03:55:15;;;;;;;6.88;4.80;;;;;;;;;;5033601;28;20061;-88
2022/09/16 03:57:43;;;;;;;9.23;6.07;;;;;;;;;;5033240;28;20490;-88
2022/09/16 04:00:10;;;;;;;10.93;7.25;;;;;;;;;;5033549;28;20046;-86
2022/09/16 04:02:37;;;;;;;8.90;6.35;;;;;;;;;;5034251;28;20510;-87
2022/09/16 04:05:05;;;;;;;8.88;5.22;;;;;;;;;;5033922;28;20464;-87
2022/09/16 04:07:32;;;;;;;7.85;5.20;;;;;;;;;;5033089;28;20064;-87
2022/09/16 04:10:00;;;;;;;6.25;4.75;;;;;;;;;;5033022;28;20049;-87
2022/09/16 04:12:28;;;;;;;13.25;5.38;;;;;;;;;;5034134;28;20395;-87
2022/09/16 04:14:55;;;;;;;5.78;5.18;;;;;;;;;;5032760;28;20057;-88
2022/09/16 04:17:23;;;;;;;13.07;5.15;;;;;;;;;;5034025;28;20508;-87
2022/09/16 04:19:51;;;;;;;6.00;5.03;;;;;;;;;;5033891;28;20504;-87
2022/09/16 04:22:18;;;;;;;9.52;4.90;;;;;;;;;;5032897;28;20049;-87
2022/09/16 04:24:46;;;;;;;7.90;4.50;;;;;;;;;;5032795;28;20148;-87
2022/09/16 04:27:16;;;;;;;4.65;4.07;;;;;;;;;;5033615;28;20481;-86
2022/09/16 04:29:43;;;;;;;8.75;4.82;;;;;;;;;;5033482;28;20437;-87
2022/09/16 04:32:10;;;;;;;7.82;4.97;;;;;;;;;;5033419;28;20490;-87
2022/09/16 04:34:37;;;;;;;7.78;5.68;;;;;;;;;;5032662;28;20049;-87
2022/09/16 04:37:04;;;;;;;9.88;5.53;;;;;;;;;;5033720;28;20053;-88
2022/09/16 04:39:31;;;;;;;11.90;5.85;;;;;;;;;;5033694;28;20049;-87
2022/09/16 04:41:59;;;;;;;24.13;6.85;;;;;;;;;;5032630;28;20053;-88
2022/09/16 04:44:29;;;;;;;36.28;7.35;;;;;;;;;;5033689;28;20045;-87
2022/09/16 04:46:56;;;;;;;28.63;7.57;;;;;;;;;;5033611;28;20041;-87
2022/09/16 04:49:23;;;;;;;25.70;7.35;;;;;;;;;;5033591;28;20053;-88
2022/09/16 04:51:51;;;;;;;19.13;6.95;;;;;;;;;;5032639;28;20046;-87
2022/09/16 04:54:18;;;;;;;8.15;6.03;;;;;;;;;;5032581;28;20406;-87
2022/09/16 04:56:45;;;;;;;12.77;6.53;;;;;;;;;;5032265;28;20053;-88
2022/09/16 04:59:12;;;;;;;9.90;5.85;;;;;;;;;;5032359;28;20058;-88
2022/09/16 05:01:40;;;;;;;18.40;6.18;;;;;;;;;;5032669;28;20418;-87
2022/09/16 05:04:09;;;;;;;14.98;7.30;;;;;;;;;;5032414;28;20052;-87
2022/09/16 05:06:37;;;;;;;18.42;7.68;;;;;;;;;;5033319;28;20056;-87
2022/09/16 05:09:05;;;;;;;27.73;7.65;;;;;;;;;;5032054;28;20465;-88
2022/09/16 05:11:36;;;;;;;16.75;6.22;;;;;;;;;;5033527;28;20050;-89
2022/09/16 05:14:05;;;;;;;17.77;6.18;;;;;;;;;;5036129;28;20438;-87
2022/09/16 05:16:32;;;;;;;12.52;6.47;;;;;;;;;;5036199;28;20050;-87
2022/09/16 05:19:03;;;;;;;18.23;6.45;;;;;;;;;;5036168;28;20132;-87
2022/09/16 05:21:31;;;;;;;13.23;7.22;;;;;;;;;;5036207;28;20057;-88
2022/09/16 05:24:00;;;;;;;14.20;7.47;;;;;;;;;;5036401;28;20053;-88
2022/09/16 05:26:28;;;;;;;11.82;7.15;;;;;;;;;;5036005;28;20045;-88
2022/09/16 05:28:55;;;;;;;14.18;7.13;;;;;;;;;;5036226;28;20049;-87
2022/09/16 05:31:24;;;;;;;21.75;7.15;;;;;;;;;;5036068;28;20132;-87
2022/09/16 05:33:56;;;;;;;18.35;6.80;;;;;;;;;;5035986;28;20057;-88
2022/09/16 05:36:23;;;;;;;11.20;6.90;;;;;;;;;;5036957;28;20050;-87
2022/09/16 05:38:50;;;;;;;12.45;7.40;;;;;;;;;;5035972;28;20136;-89
2022/09/16 05:41:37;;;;;;;12.45;7.22;;;;;;;;;;5037144;28;20049;-88
2022/09/16 05:44:08;;;;;;;10.45;6.95;;;;;;;;;;5036813;28;20100;-88
2022/09/16 05:46:36;;;;;;;9.82;6.75;;;;;;;;;;5036634;28;20489;-88
2022/09/16 05:49:03;;;;;;;11.27;6.13;;;;;;;;;;5036752;28;20065;-88
2022/09/16 05:51:31;;;;;;;13.98;6.90;;;;;;;;;;5035626;28;20061;-87
2022/09/16 05:53:58;;;;;;;13.90;6.20;;;;;;;;;;5035405;28;20060;-87
2022/09/16 05:56:27;;;;;;;16.90;6.28;;;;;;;;;;5035375;28;20452;-86
2022/09/16 05:58:56;;;;;;;23.33;5.07;;;;;;;;;;5035510;28;20072;-87
2022/09/16 06:01:25;;;;;;;13.63;5.90;;;;;;;;;;5036603;28;20042;-88
2022/09/16 06:03:53;;;;;;;14.57;6.28;;;;;;;;;;5035520;28;20072;-88
2022/09/16 06:06:25;;;;;;;6.22;5.05;;;;;;;;;;5036532;28;20095;-87
2022/09/16 06:08:53;;;;;;;8.75;5.57;;;;;;;;;;5035578;28;20053;-87
2022/09/16 06:11:21;;;;;;;7.35;5.45;;;;;;;;;;5036274;28;20521;-87
2022/09/16 06:13:54;;;;;;;8.40;5.43;;;;;;;;;;5035113;28;20058;-87
2022/09/16 06:16:22;;;;;;;6.60;5.95;;;;;;;;;;5035328;28;20132;-88
2022/09/16 06:18:49;;;;;;;15.15;9.00;;;;;;;;;;5035352;28;20046;-87
2022/09/16 06:21:17;;;;;;;11.63;7.72;;;;;;;;;;5036345;28;20053;-87
2022/09/16 06:23:44;;;;;;;8.77;7.63;;;;;;;;;;5034858;28;20049;-88
2022/09/16 06:26:16;;;;;;;12.70;8.15;;;;;;;;;;5036202;28;20053;-90
2022/09/16 06:28:44;;;;;;;14.02;6.75;;;;;;;;;;5036095;28;20151;-89
2022/09/16 06:31:13;;;;;;;26.02;8.68;;;;;;;;;;5035261;28;20053;-89
2022/09/16 06:33:40;;;;;;;12.35;7.57;;;;;;;;;;5035996;28;20053;-87
2022/09/16 06:36:08;;;;;;;15.57;7.10;;;;;;;;;;5034860;28;20137;-87
2022/09/16 06:38:36;;;;;;;14.73;6.47;;;;;;;;;;5034609;28;20053;-88
2022/09/16 06:41:04;;;;;;;10.45;5.95;;;;;;;;;;5034761;28;20050;-88
2022/09/16 06:43:31;;;;;;;9.98;5.93;;;;;;;;;;5035002;28;20057;-89
2022/09/16 06:45:59;;;;;;;11.50;5.30;;;;;;;;;;5034513;28;20052;-88
2022/09/16 06:48:27;;;;;;;7.35;4.82;;;;;;;;;;5035464;28;20088;-88
2022/09/16 06:50:58;;;;;;;6.32;4.97;;;;;;;;;;5034750;28;20045;-88
2022/09/16 06:53:25;;;;;;;13.45;4.68;;;;;;;;;;5034670;28;20053;-88
2022/09/16 06:55:52;;;;;;;7.55;3.95;;;;;;;;;;5035318;28;20083;-88
2022/09/16 06:58:19;;;;;;;11.70;3.47;;;;;;;;;;5034504;28;20140;-87
2022/09/16 07:00:47;;;;;;;6.88;2.90;;;;;;;;;;5034032;28;20053;-86
2022/09/16 07:03:14;;;;;;;7.80;2.78;;;;;;;;;;5034359;28;20486;-86
2022/09/16 07:05:41;;;;;;;7.10;2.70;;;;;;;;;;5034032;28;20052;-85
2022/09/16 07:08:08;;;;;;;4.65;2.70;;;;;;;;;;5035027;28;20053;-86
2022/09/16 07:10:35;;;;;;;10.40;4.15;;;;;;;;;;5034224;28;20053;-86
2022/09/16 07:13:03;;;;;;;8.48;2.65;;;;;;;;;;5033929;28;20049;-86
2022/09/16 07:15:30;;;;;;;3.65;2.08;;;;;;;;;;5033975;28;20045;-85
2022/09/16 07:17:57;;;;;;;2.53;1.50;;;;;;;;;;5033872;28;20409;-87
2022/09/16 07:20:24;;;;;;;2.67;1.67;;;;;;;;;;5032279;28;20052;-86
2022/09/16 07:22:52;;;;;;;3.75;1.23;;;;;;;;;;5033840;28;20489;-86
2022/09/16 07:25:19;;;;;;;4.13;1.33;;;;;;;;;;5033770;28;20052;-86
2022/09/16 07:27:47;;;;;;;2.33;1.00;;;;;;;;;;5033602;28;20049;-86
2022/09/16 07:30:14;;;;;;;0.98;0.90;;;;;;;;;;5033780;28;20061;-85
2022/09/16 07:32:41;;;;;;;2.58;1.17;;;;;;;;;;5034535;28;20081;-86
2022/09/16 07:35:08;;;;;;;2.45;0.70;;;;;;;;;;5033102;28;20049;-86
2022/09/16 07:37:35;;;;;;;2.40;0.75;;;;;;;;;;5034389;28;20064;-85
2022/09/16 07:40:08;;;;;;;4.32;1.20;;;;;;;;;;5033819;28;20049;-87
2022/09/16 07:42:35;;;;;;;4.70;0.70;;;;;;;;;;5033475;28;20053;-86
2022/09/16 07:45:03;;;;;;;1.08;0.38;;;;;;;;;;5033343;28;20056;-88
2022/09/16 07:47:30;;;;;;;2.72;0.50;;;;;;;;;;5033611;28;20060;-86
2022/09/16 07:49:58;;;;;;;2.90;0.57;;;;;;;;;;5034016;28;20060;-86
2022/09/16 07:52:28;;;;;;;4.45;0.50;;;;;;;;;;5033302;28;20061;-86
2022/09/16 07:54:55;;;;;;;3.58;0.60;;;;;;;;;;5034597;28;20124;-86
2022/09/16 07:57:23;;;;;;;3.08;0.70;;;;;;;;;;5034368;28;20480;-87
2022/09/16 07:59:50;;;;;;;4.25;0.60;;;;;;;;;;5033945;28;20055;-85
2022/09/16 08:02:17;;;;;;;4.25;0.90;;;;;;;;;;5034161;28;20064;-86
2022/09/16 08:04:44;;;;;;;1.10;0.57;;;;;;;;;;5033923;28;20452;-87
2022/09/16 08:07:11;;;;;;;1.05;0.60;;;;;;;;;;5033051;28;20401;-87
2022/09/16 08:09:39;;;;;;;2.22;0.60;;;;;;;;;;5034122;28;20050;-84
2022/09/16 08:12:13;;;;;;;4.97;0.70;;;;;;;;;;5034135;28;20124;-86
2022/09/16 08:14:40;;;;;;;1.30;0.60;;;;;;;;;;5032712;28;20092;-86
2022/09/16 08:17:07;;;;;;;2.45;0.35;;;;;;;;;;5032996;28;20487;-87
2022/09/16 08:19:37;;;;;;;1.23;0.65;;;;;;;;;;5034027;28;20060;-86
2022/09/16 08:22:04;;;;;;;3.15;0.52;;;;;;;;;;5033766;28;20474;-88
2022/09/16 08:24:31;;;;;;;4.00;0.73;;;;;;;;;;5032838;28;20060;-89
2022/09/16 08:26:58;;;;;;;0.57;0.40;;;;;;;;;;5033525;28;20054;-88
2022/09/16 08:29:26;;;;;;;3.75;0.93;;;;;;;;;;5032633;28;20132;-86
2022/09/16 08:31:53;;;;;;;5.07;0.70;;;;;;;;;;5032498;28;20049;-87
2022/09/16 08:34:20;;;;;;;4.60;0.50;;;;;;;;;;5033906;28;20065;-87
2022/09/16 08:36:47;;;;;;;4.13;0.75;;;;;;;;;;5032751;28;20524;-87
2022/09/16 08:39:14;;;;;;;3.85;0.80;;;;;;;;;;5032676;28;20128;-87
2022/09/16 08:41:54;;;;;;;0.63;0.60;;;;;;;;;;5032513;28;20080;-88
2022/09/16 08:44:27;;;;;;;3.33;0.55;;;;;;;;;;5033435;28;20045;-87
2022/09/16 08:47:02;;;;;;;2.40;0.50;;;;;;;;;;5033596;28;20509;-87
2022/09/16 08:49:35;;;;;;;2.40;0.50;;;;;;;;;;5032866;28;20056;-88
2022/09/16 08:52:13;;;;;;;1.02;0.52;;;;;;;;;;5033313;28;20095;-87
2022/09/16 08:54:43;;;;;;;0.63;0.40;;;;;;;;;;5033494;28;20049;-87
2022/09/16 08:57:14;;;;;;;2.17;0.77;;;;;;;;;;5032561;28;20045;-87
2022/09/16 08:59:44;;;;;;;18.25;1.50;;;;;;;;;;5033266;28;20061;-87
2022/09/16 09:02:17;;;;;;;2.20;0.52;;;;;;;;;;5032295;28;20060;-87
2022/09/16 09:04:45;;;;;;;3.40;0.60;;;;;;;;;;5032650;28;20054;-87
2022/09/16 09:07:12;;;;;;;2.45;0.60;;;;;;;;;;5033306;28;20081;-87
2022/09/16 09:09:58;;;;;;;21.58;1.55;;;;;;;;;;5033209;28;20046;-88
2022/09/16 09:12:38;;;;;;;2.00;0.40;;;;;;;;;;5032422;28;20057;-87
2022/09/16 09:15:07;;;;;;;4.35;0.90;;;;;;;;;;5032023;28;20064;-88
2022/09/16 09:17:44;;;;;;;6.80;0.90;;;;;;;;;;5033431;28;20485;-86
2022/09/16 09:20:15;;;;;;;14.32;1.23;;;;;;;;;;5033378;28;20049;-86
2022/09/16 09:23:07;;;;;;;12.48;0.80;;;;;;;;;;5032094;28;20142;-86
2022/09/16 09:25:42;;;;;;;3.13;0.40;;;;;;;;;;5032046;28;20054;-87
2022/09/16 09:28:21;;;;;;;22.17;2.25;;;;;;;;;;5032374;28;20478;-92
2022/09/16 09:31:08;;;;;;;10.73;1.05;;;;;;;;;;5033255;28;20049;-85
2022/09/16 09:33:37;;;;;;;3.65;0.50;;;;;;;;;;5003191;28;20386;-86
2022/09/16 09:36:37;;;;;;;1.65;0.55;;;;;;;;;;5032037;28;20161;-87
2022/09/16 09:39:09;;;;;;;6.32;0.57;;;;;;;;;;5033021;28;20093;-88
2022/09/16 09:41:39;;;;;;;5.18;0.50;;;;;;;;;;5032101;28;20046;-89
2022/09/16 09:44:29;;;;;;;2.03;0.90;;;;;;;;;;5032966;28;20053;-87
2022/09/16 09:47:00;;;;;;;5.07;0.65;;;;;;;;;;5032027;28;20323;-85
2022/09/16 09:49:36;;;;;;;4.53;0.60;;;;;;;;;;5033050;28;20049;-88
2022/09/16 09:52:12;;;;;;;0.63;0.40;;;;;;;;;;5031909;28;20054;-88
2022/09/16 09:54:43;;;;;;;1.20;0.30;;;;;;;;;;5031649;28;20049;-85
2022/09/16 09:57:22;;;;;;;0.75;0.50;;;;;;;;;;5032827;28;20048;-86
2022/09/16 10:00:04;;;;;;;2.65;0.47;;;;;;;;;;5035249;28;20053;-88
2022/09/16 10:02:31;;;;;;;0.93;0.30;;;;;;;;;;5035397;28;20056;-87
2022/09/16 10:05:00;;;;;;;0.63;0.30;;;;;;;;;;5035442;28;20046;-88
2022/09/16 10:07:27;;;;;;;0.60;0.38;;;;;;;;;;5035350;28;20416;-85
2022/09/16 10:10:00;;;;;;;3.88;0.50;;;;;;;;;;5034967;28;20520;-86
2022/09/16 10:12:29;;;;;;;2.45;0.45;;;;;;;;;;5035087;28;20483;-86
2022/09/16 10:14:56;;;;;;;0.85;0.35;;;;;;;;;;5035964;28;20053;-86
2022/09/16 10:17:25;;;;;;;0.98;0.43;;;;;;;;;;5035932;28;20399;-86
2022/09/16 10:19:53;;;;;;;7.18;1.08;;;;;;;;;;5035002;28;20049;-86
2022/09/16 10:22:23;;;;;;;0.60;0.40;;;;;;;;;;5034698;28;20061;-85
2022/09/16 10:24:55;;;;;;;2.40;0.25;;;;;;;;;;5034768;28;20049;-86
2022/09/16 10:27:31;;;;;;;2.65;0.60;;;;;;;;;;5035056;28;20049;-86
2022/09/16 10:30:20;;;;;;;0.85;0.80;;;;;;;;;;5035558;28;20053;-86
2022/09/16 10:32:57;;;;;;;8.93;0.57;;;;;;;;;;5035158;28;20178;-87
2022/09/16 10:35:29;;;;;;;0.63;0.30;;;;;;;;;;5035800;28;20053;-86
2022/09/16 10:38:04;;;;;;;2.08;0.30;;;;;;;;;;5034763;28;20050;-86
2022/09/16 10:40:32;;;;;;;0.43;0.30;;;;;;;;;;5034630;28;20045;-86
2022/09/16 10:43:07;;;;;;;2.83;0.43;;;;;;;;;;5034643;28;20058;-85
2022/09/16 10:45:36;;;;;;;3.40;0.28;;;;;;;;;;5034764;28;20053;-87
2022/09/16 10:48:07;;;;;;;3.58;0.60;;;;;;;;;;5034373;28;20049;-88
2022/09/16 10:50:34;;;;;;;1.60;0.30;;;;;;;;;;5034610;28;20049;-87
2022/09/16 10:53:01;;;;;;;3.25;0.35;;;;;;;;;;5034353;28;20045;-86
2022/09/16 10:55:29;;;;;;;1.25;0.30;;;;;;;;;;5034401;28;20562;-87
2022/09/16 10:58:13;;;;;;;1.02;0.30;;;;;;;;;;5034280;28;20529;-87
2022/09/16 11:00:55;;;;;;;1.17;0.40;;;;;;;;;;5034152;28;20141;-88
2022/09/16 11:03:26;;;;;;;2.55;0.50;;;;;;;;;;5034045;28;20068;-88
2022/09/16 11:06:12;;;;;;;1.15;0.43;;;;;;;;;;5035109;28;20061;-88
2022/09/16 11:08:51;;;;;;;1.05;0.50;;;;;;;;;;5033151;28;20046;-86
2022/09/16 11:11:37;;;;;;;1.02;0.30;;;;;;;;;;5034334;28;20521;-85
2022/09/16 11:14:12;;;;;;;0.35;0.20;;;;;;;;;;5034331;28;20052;-87
2022/09/16 11:16:42;;;;;;;0.50;0.30;;;;;;;;;;5034089;28;20053;-86
2022/09/16 11:19:24;;;;;;;0.28;0.28;;;;;;;;;;5035052;28;20047;-87
2022/09/16 11:22:03;;;;;;;1.98;0.22;;;;;;;;;;5034108;28;20056;-87
2022/09/16 11:24:30;;;;;;;0.50;0.28;;;;;;;;;;5034687;28;20128;-87
2022/09/16 11:27:16;;;;;;;0.50;0.20;;;;;;;;;;5033702;28;20109;-88
2022/09/16 11:29:54;;;;;;;0.20;0.20;;;;;;;;;;5034713;28;20490;-86
2022/09/16 11:32:32;;;;;;;2.67;0.40;;;;;;;;;;5033726;28;20132;-88
2022/09/16 11:35:04;;;;;;;0.30;0.30;;;;;;;;;;5034552;28;20041;-91
2022/09/16 11:37:50;;;;;;;9.13;0.75;;;;;;;;;;5034643;28;20049;-88
2022/09/16 11:40:27;;;;;;;0.47;0.47;;;;;;;;;;5034603;28;20054;-88
2022/09/16 11:43:05;;;;;;;0.82;0.47;;;;;;;;;;5034656;28;20417;-88
2022/09/16 11:45:41;;;;;;;1.20;0.30;;;;;;;;;;5033579;28;20415;-87
2022/09/16 11:48:23;;;;;;;1.30;0.40;;;;;;;;;;5033670;28;20041;-88
2022/09/16 11:51:00;;;;;;;1.60;0.43;;;;;;;;;;5033460;28;20046;-88
2022/09/16 11:53:30;;;;;;;0.43;0.40;;;;;;;;;;5033476;28;20053;-89
2022/09/16 11:56:08;;;;;;;1.15;0.60;;;;;;;;;;5033426;28;20486;-88
2022/09/16 11:58:55;;;;;;;2.58;0.70;;;;;;;;;;5034203;28;20053;-88
2022/09/16 12:01:26;;;;;;;2.45;0.82;;;;;;;;;;5033581;28;20077;-88
2022/09/16 12:04:02;;;;;;;1.15;0.70;;;;;;;;;;5034264;28;20053;-88
2022/09/16 12:06:33;;;;;;;0.45;0.20;;;;;;;;;;5034574;28;20056;-88
2022/09/16 12:09:06;;;;;;;0.50;0.32;;;;;;;;;;5033350;28;20045;-89
2022/09/16 12:11:40;;;;;;;0.40;0.40;;;;;;;;;;5034378;28;20115;-89
2022/09/16 12:14:11;;;;;;;0.65;0.40;;;;;;;;;;5033131;28;20049;-86
2022/09/16 12:16:47;;;;;;;3.70;0.60;;;;;;;;;;5034108;28;20063;-89
2022/09/16 12:19:18;;;;;;;0.75;0.30;;;;;;;;;;5033056;28;20140;-87
2022/09/16 12:21:45;;;;;;;1.45;0.40;;;;;;;;;;5032858;28;20112;-88
2022/09/16 12:24:17;;;;;;;0.20;0.20;;;;;;;;;;5033830;28;20494;-87
2022/09/16 12:26:47;;;;;;;0.20;0.20;;;;;;;;;;5032804;28;20502;-87
2022/09/16 12:29:17;;;;;;;0.93;0.30;;;;;;;;;;5032796;28;20050;-86
2022/09/16 12:32:04;;;;;;;8.95;0.98;;;;;;;;;;5033820;28;20042;-88
2022/09/16 12:34:52;;;;;;;1.25;0.60;;;;;;;;;;5032793;28;20056;-87
2022/09/16 12:37:27;;;;;;;5.70;0.93;;;;;;;;;;5022808;28;20502;-86
2022/09/16 12:39:54;;;;;;;0.38;0.38;;;;;;;;;;5033780;28;20052;-89
2022/09/16 12:42:40;;;;;;;1.70;0.40;;;;;;;;;;5033204;28;20410;-91
2022/09/16 12:45:22;;;;;;;1.50;0.50;;;;;;;;;;5032908;28;20096;-93
2022/09/16 12:47:57;;;;;;;1.10;0.30;;;;;;;;;;5032794;28;20422;-89
2022/09/16 12:50:39;;;;;;;0.68;0.30;;;;;;;;;;5032690;28;20054;-89
2022/09/16 12:53:19;;;;;;;0.85;0.50;;;;;;;;;;5032923;28;20386;-86
2022/09/16 12:56:04;;;;;;;0.47;0.40;;;;;;;;;;5032400;28;20055;-88
2022/09/16 12:58:48;;;;;;;2.97;0.90;;;;;;;;;;5033700;28;20052;-87
2022/09/16 13:01:18;;;;;;;3.85;0.73;;;;;;;;;;5032755;28;20412;-89
2022/09/16 13:03:47;;;;;;;0.40;0.40;;;;;;;;;;5033345;28;20048;-88
2022/09/16 13:06:20;;;;;;;2.10;0.82;;;;;;;;;;5032374;28;20052;-88
2022/09/16 13:08:48;;;;;;;1.08;0.88;;;;;;;;;;5033197;28;20045;-86
2022/09/16 13:11:18;;;;;;;0.70;0.50;;;;;;;;;;5032445;28;20516;-86
2022/09/16 13:14:15;;;;;;;1.60;0.55;;;;;;;;;;5033582;28;20452;-89
2022/09/16 13:16:51;;;;;;;2.63;0.82;;;;;;;;;;5032558;28;20059;-92
2022/09/16 13:19:19;;;;;;;1.05;0.60;;;;;;;;;;5032660;28;20046;-92
2022/09/16 13:21:47;;;;;;;1.10;0.50;;;;;;;;;;5031200;28;20041;-92
2022/09/16 13:24:24;;;;;;;0.55;0.40;;;;;;;;;;5032565;28;20045;-92
2022/09/16 13:26:51;;;;;;;0.47;0.43;;;;;;;;;;5033316;28;20061;-92
2022/09/16 13:29:39;;;;;;;1.10;0.40;;;;;;;;;;5032194;28;20045;-92
2022/09/16 13:32:24;;;;;;;0.40;0.40;;;;;;;;;;5034582;28;20056;-90
2022/09/16 13:35:04;;;;;;;1.20;0.40;;;;;;;;;;5036421;28;20052;-91
2022/09/16 13:37:32;;;;;;;0.45;0.20;;;;;;;;;;5036125;28;20071;-89
2022/09/16 13:40:08;;;;;;;9.82;0.85;;;;;;;;;;5037123;28;20049;-91
2022/09/16 13:42:36;;;;;;;2.50;0.50;;;;;;;;;;5036439;28;20049;-87
2022/09/16 13:45:03;;;;;;;0.28;0.28;;;;;;;;;;5036878;28;20556;-89
2022/09/16 13:47:34;;;;;;;0.40;0.40;;;;;;;;;;5036902;28;20053;-89
2022/09/16 13:50:07;;;;;;;0.30;0.30;;;;;;;;;;5036687;28;20054;-90
2022/09/16 13:52:35;;;;;;;0.30;0.30;;;;;;;;;;5036506;28;20444;-87
2022/09/16 13:55:08;;;;;;;0.63;0.50;;;;;;;;;;5036707;28;20144;-88
2022/09/16 13:57:41;;;;;;;0.82;0.28;;;;;;;;;;5035646;28;20045;-85
2022/09/16 14:00:10;;;;;;;2.17;0.60;;;;;;;;;;5036415;28;20092;-89
2022/09/16 14:02:56;;;;;;;0.30;0.30;;;;;;;;;;5035324;28;20109;-86
2022/09/16 14:05:42;;;;;;;1.80;0.40;;;;;;;;;;5036332;28;20053;-86
2022/09/16 14:08:17;;;;;;;1.30;0.40;;;;;;;;;;5035308;28;20045;-87
2022/09/16 14:10:48;;;;;;;2.20;0.40;;;;;;;;;;5035053;28;20472;-87
2022/09/16 14:13:19;;;;;;;0.50;0.50;;;;;;;;;;5035264;28;20049;-87
2022/09/16 14:15:49;;;;;;;1.23;0.57;;;;;;;;;;5035272;28;20057;-88
2022/09/16 14:18:18;;;;;;;0.43;0.43;;;;;;;;;;5036495;28;20042;-86
2022/09/16 14:20:53;;;;;;;0.70;0.70;;;;;;;;;;5035306;28;20045;-88
2022/09/16 14:23:22;;;;;;;0.65;0.40;;;;;;;;;;5034783;28;20057;-87
2022/09/16 14:25:49;;;;;;;0.82;0.40;;;;;;;;;;5034746;28;20050;-89
2022/09/16 14:28:22;;;;;;;2.50;0.55;;;;;;;;;;5034946;28;20059;-86
2022/09/16 14:30:52;;;;;;;1.65;0.63;;;;;;;;;;5035986;28;20084;-88
2022/09/16 14:33:21;;;;;;;2.95;0.40;;;;;;;;;;5034790;28;20048;-89
2022/09/16 14:35:49;;;;;;;1.40;0.60;;;;;;;;;;5034883;28;20151;-87
2022/09/16 14:38:18;;;;;;;0.57;0.57;;;;;;;;;;5035715;28;20168;-87
2022/09/16 14:41:07;;;;;;;0.82;0.45;;;;;;;;;;5035834;28;20049;-86
2022/09/16 14:43:36;;;;;;;6.85;1.23;;;;;;;;;;5035377;28;20049;-86
2022/09/16 14:46:06;;;;;;;7.43;1.38;;;;;;;;;;5034614;28;20132;-86
2022/09/16 14:48:35;;;;;;;7.35;0.90;;;;;;;;;;5034455;28;20050;-87
2022/09/16 14:51:02;;;;;;;4.95;0.82;;;;;;;;;;5035317;28;20053;-86
2022/09/16 14:53:30;;;;;;;0.90;0.60;;;;;;;;;;5034484;28;20353;-87
2022/09/16 14:56:04;;;;;;;0.70;0.60;;;;;;;;;;5034310;28;20050;-85
2022/09/16 14:58:32;;;;;;;0.63;0.30;;;;;;;;;;5035574;28;20050;-88
2022/09/16 15:01:03;;;;;;;1.65;0.43;;;;;;;;;;5034598;28;20547;-88
2022/09/16 15:03:47;;;;;;;2.17;0.60;;;;;;;;;;5034146;28;20052;-86
2022/09/16 15:06:17;;;;;;;1.40;0.40;;;;;;;;;;5035268;28;20421;-86
2022/09/16 15:08:47;;;;;;;2.25;0.30;;;;;;;;;;5035148;28;20052;-87
2022/09/16 15:11:17;;;;;;;0.28;0.20;;;;;;;;;;5033984;28;20072;-87